sensor_id;sensor_type;location;lat;lon;timestamp;pressure;altitude;pressure_sealevel;temperature;humidity
77062;BME280;65989;51.686;5.138;2024-03-22T00:01:43;102223.06;;;11.02;100.00
77062;BME280;65989;51.686;5.138;2024-03-22T00:04:08;102223.88;;;11.02;100.00
77062;BME280;65989;51.686;5.138;2024-03-22T00:06:34;102219.38;;;11.03;100.00
77062;BME280;65989;51.686;5.138;2024-03-22T00:08:59;102216.72;;;11.03;100.00
77062;BME280;65989;51.686;5.138;2024-03-22T00:11:24;102220.19;;;11.03;100.00
77062;BME280;65989;51.686;5.138;2024-03-22T00:13:50;102215.47;;;11.05;100.00
77062;BME280;65989;51.686;5.138;2024-03-22T00:16:15;102216.06;;;11.08;100.00
77062;BME280;65989;51.686;5.138;2024-03-22T00:18:40;102203.00;;;11.06;100.00
77062;BME280;65989;51.686;5.138;2024-03-22T00:21:06;102200.94;;;11.08;100.00
77062;BME280;65989;51.686;5.138;2024-03-22T00:23:31;102198.28;;;11.08;100.00
77062;BME280;65989;51.686;5.138;2024-03-22T00:25:56;102193.81;;;11.09;100.00
77062;BME280;65989;51.686;5.138;2024-03-22T00:28:22;102190.09;;;11.10;100.00
77062;BME280;65989;51.686;5.138;2024-03-22T00:30:47;102180.56;;;11.09;100.00
77062;BME280;65989;51.686;5.138;2024-03-22T00:33:12;102181.09;;;11.11;100.00
77062;BME280;65989;51.686;5.138;2024-03-22T00:35:38;102176.03;;;11.09;100.00
77062;BME280;65989;51.686;5.138;2024-03-22T00:38:03;102164.06;;;11.07;100.00
77062;BME280;65989;51.686;5.138;2024-03-22T00:40:29;102159.53;;;11.07;100.00
77062;BME280;65989;51.686;5.138;2024-03-22T00:42:54;102158.16;;;11.04;100.00
77062;BME280;65989;51.686;5.138;2024-03-22T00:45:19;102146.13;;;11.02;100.00
77062;BME280;65989;51.686;5.138;2024-03-22T00:47:45;102141.84;;;11.01;100.00
77062;BME280;65989;51.686;5.138;2024-03-22T00:50:10;102136.34;;;11.02;100.00
77062;BME280;65989;51.686;5.138;2024-03-22T00:52:36;102128.59;;;11.01;100.00
77062;BME280;65989;51.686;5.138;2024-03-22T00:55:01;102127.56;;;11.02;100.00
77062;BME280;65989;51.686;5.138;2024-03-22T00:57:26;102128.59;;;11.01;100.00
77062;BME280;65989;51.686;5.138;2024-03-22T00:59:52;102122.94;;;10.97;100.00
77062;BME280;65989;51.686;5.138;2024-03-22T01:02:18;102120.06;;;10.99;100.00
77062;BME280;65989;51.686;5.138;2024-03-22T01:04:43;102120.06;;;10.99;100.00
77062;BME280;65989;51.686;5.138;2024-03-22T01:07:08;102112.19;;;10.92;100.00
77062;BME280;65989;51.686;5.138;2024-03-22T01:09:34;102109.03;;;10.83;100.00
77062;BME280;65989;51.686;5.138;2024-03-22T01:11:59;102110.28;;;10.81;100.00
77062;BME280;65989;51.686;5.138;2024-03-22T01:14:25;102119.84;;;10.82;100.00
77062;BME280;65989;51.686;5.138;2024-03-22T01:16:50;102110.97;;;10.76;100.00
77062;BME280;65989;51.686;5.138;2024-03-22T01:19:15;102112.22;;;10.73;100.00
77062;BME280;65989;51.686;5.138;2024-03-22T01:21:41;102094.56;;;10.67;100.00
77062;BME280;65989;51.686;5.138;2024-03-22T01:24:06;102095.00;;;10.64;100.00
77062;BME280;65989;51.686;5.138;2024-03-22T01:26:31;102099.47;;;10.64;100.00
77062;BME280;65989;51.686;5.138;2024-03-22T01:28:57;102099.91;;;10.60;100.00
77062;BME280;65989;51.686;5.138;2024-03-22T01:31:22;102094.50;;;10.55;100.00
77062;BME280;65989;51.686;5.138;2024-03-22T01:33:47;102088.81;;;10.52;100.00
77062;BME280;65989;51.686;5.138;2024-03-22T01:36:13;102092.13;;;10.47;100.00
77062;BME280;65989;51.686;5.138;2024-03-22T01:38:38;102086.25;;;10.45;100.00
77062;BME280;65989;51.686;5.138;2024-03-22T01:41:03;102084.84;;;10.42;100.00
77062;BME280;65989;51.686;5.138;2024-03-22T01:43:29;102080.59;;;10.41;100.00
77062;BME280;65989;51.686;5.138;2024-03-22T01:45:54;102082.41;;;10.41;100.00
77062;BME280;65989;51.686;5.138;2024-03-22T01:48:20;102077.13;;;10.41;100.00
77062;BME280;65989;51.686;5.138;2024-03-22T01:50:45;102089.34;;;10.42;100.00
77062;BME280;65989;51.686;5.138;2024-03-22T01:53:11;102094.63;;;10.42;100.00
77062;BME280;65989;51.686;5.138;2024-03-22T01:55:37;102102.59;;;10.42;100.00
77062;BME280;65989;51.686;5.138;2024-03-22T01:58:03;102102.59;;;10.42;100.00
77062;BME280;65989;51.686;5.138;2024-03-22T02:00:29;102102.59;;;10.42;100.00
77062;BME280;65989;51.686;5.138;2024-03-22T02:02:55;102101.19;;;10.39;100.00
77062;BME280;65989;51.686;5.138;2024-03-22T02:05:21;102103.84;;;10.39;100.00
77062;BME280;65989;51.686;5.138;2024-03-22T02:07:47;102103.84;;;10.39;100.00
77062;BME280;65989;51.686;5.138;2024-03-22T02:10:13;102094.03;;;10.40;100.00
77062;BME280;65989;51.686;5.138;2024-03-22T02:12:39;102092.22;;;10.40;100.00
77062;BME280;65989;51.686;5.138;2024-03-22T02:15:05;102095.00;;;10.45;100.00
77062;BME280;65989;51.686;5.138;2024-03-22T02:17:32;102087.41;;;10.49;100.00
77062;BME280;65989;51.686;5.138;2024-03-22T02:19:58;102083.50;;;10.52;100.00
77062;BME280;65989;51.686;5.138;2024-03-22T02:22:24;102078.59;;;10.55;100.00
77062;BME280;65989;51.686;5.138;2024-03-22T02:24:49;102071.44;;;10.56;100.00
77062;BME280;65989;51.686;5.138;2024-03-22T02:27:14;102064.91;;;10.58;100.00
77062;BME280;65989;51.686;5.138;2024-03-22T02:29:40;102060.38;;;10.59;100.00
77062;BME280;65989;51.686;5.138;2024-03-22T02:32:05;102052.69;;;10.57;100.00
77062;BME280;65989;51.686;5.138;2024-03-22T02:34:31;102044.72;;;10.57;100.00
77062;BME280;65989;51.686;5.138;2024-03-22T02:36:56;102050.81;;;10.58;100.00
77062;BME280;65989;51.686;5.138;2024-03-22T02:39:22;102055.91;;;10.59;100.00
77062;BME280;65989;51.686;5.138;2024-03-22T02:41:47;102058.19;;;10.56;100.00
77062;BME280;65989;51.686;5.138;2024-03-22T02:44:12;102057.59;;;10.54;100.00
77062;BME280;65989;51.686;5.138;2024-03-22T02:46:38;102050.31;;;10.49;100.00
77062;BME280;65989;51.686;5.138;2024-03-22T02:49:03;102044.63;;;10.45;100.00
77062;BME280;65989;51.686;5.138;2024-03-22T02:51:28;102040.00;;;10.41;100.00
77062;BME280;65989;51.686;5.138;2024-03-22T02:53:54;102036.56;;;10.40;100.00
77062;BME280;65989;51.686;5.138;2024-03-22T02:56:19;102036.56;;;10.40;100.00
77062;BME280;65989;51.686;5.138;2024-03-22T02:58:45;102035.94;;;10.38;100.00
77062;BME280;65989;51.686;5.138;2024-03-22T03:01:10;102031.47;;;10.39;100.00
77062;BME280;65989;51.686;5.138;2024-03-22T03:03:35;102022.72;;;10.38;100.00
77062;BME280;65989;51.686;5.138;2024-03-22T03:06:01;102004.22;;;10.31;100.00
77062;BME280;65989;51.686;5.138;2024-03-22T03:08:26;102008.03;;;10.36;100.00
77062;BME280;65989;51.686;5.138;2024-03-22T03:10:52;102005.63;;;10.34;100.00
77062;BME280;65989;51.686;5.138;2024-03-22T03:13:17;102009.91;;;10.35;100.00
77062;BME280;65989;51.686;5.138;2024-03-22T03:15:43;102002.97;;;10.34;100.00
77062;BME280;65989;51.686;5.138;2024-03-22T03:18:08;102000.53;;;10.32;100.00
77062;BME280;65989;51.686;5.138;2024-03-22T03:20:33;102000.53;;;10.32;100.00
77062;BME280;65989;51.686;5.138;2024-03-22T03:22:59;101989.00;;;10.27;100.00
77062;BME280;65989;51.686;5.138;2024-03-22T03:25:25;101993.13;;;10.23;100.00
77062;BME280;65989;51.686;5.138;2024-03-22T03:27:51;101991.50;;;10.22;100.00
77062;BME280;65989;51.686;5.138;2024-03-22T03:30:17;101991.94;;;10.19;100.00
77062;BME280;65989;51.686;5.138;2024-03-22T03:32:42;101989.53;;;10.17;100.00
77062;BME280;65989;51.686;5.138;2024-03-22T03:35:07;101983.41;;;10.16;100.00
77062;BME280;65989;51.686;5.138;2024-03-22T03:37:33;101985.25;;;10.16;100.00
77062;BME280;65989;51.686;5.138;2024-03-22T03:39:58;101991.34;;;10.16;100.00
77062;BME280;65989;51.686;5.138;2024-03-22T03:42:24;101982.38;;;10.18;100.00
77062;BME280;65989;51.686;5.138;2024-03-22T03:44:49;101984.22;;;10.17;100.00
77062;BME280;65989;51.686;5.138;2024-03-22T03:47:14;101970.16;;;10.16;100.00
77062;BME280;65989;51.686;5.138;2024-03-22T03:49:40;101971.78;;;10.18;100.00
77062;BME280;65989;51.686;5.138;2024-03-22T03:52:05;101964.88;;;10.16;100.00
77062;BME280;65989;51.686;5.138;2024-03-22T03:54:31;101956.13;;;10.16;100.00
77062;BME280;65989;51.686;5.138;2024-03-22T03:56:57;101955.31;;;10.15;100.00
77062;BME280;65989;51.686;5.138;2024-03-22T03:59:22;101950.81;;;10.16;100.00
77062;BME280;65989;51.686;5.138;2024-03-22T04:01:48;101947.16;;;10.17;100.00
77062;BME280;65989;51.686;5.138;2024-03-22T04:04:13;101943.69;;;10.16;100.00
77062;BME280;65989;51.686;5.138;2024-03-22T04:06:38;101940.22;;;10.16;100.00
77062;BME280;65989;51.686;5.138;2024-03-22T04:09:04;101942.28;;;10.14;100.00
77062;BME280;65989;51.686;5.138;2024-03-22T04:11:30;101942.50;;;10.12;100.00
77062;BME280;65989;51.686;5.138;2024-03-22T04:13:55;101936.19;;;10.13;100.00
77062;BME280;65989;51.686;5.138;2024-03-22T04:16:21;101935.38;;;10.13;100.00
77062;BME280;65989;51.686;5.138;2024-03-22T04:18:46;101946.56;;;10.15;100.00
77062;BME280;65989;51.686;5.138;2024-03-22T04:21:12;101942.75;;;10.11;100.00
77062;BME280;65989;51.686;5.138;2024-03-22T04:23:37;101946.41;;;10.10;100.00
77062;BME280;65989;51.686;5.138;2024-03-22T04:26:02;101945.81;;;10.08;100.00
77062;BME280;65989;51.686;5.138;2024-03-22T04:28:29;101937.09;;;10.07;100.00
77062;BME280;65989;51.686;5.138;2024-03-22T04:31:01;101949.31;;;10.08;100.00
77062;BME280;65989;51.686;5.138;2024-03-22T04:33:28;101946.84;;;10.07;100.00
77062;BME280;65989;51.686;5.138;2024-03-22T04:35:54;101943.41;;;10.06;100.00
77062;BME280;65989;51.686;5.138;2024-03-22T04:38:20;101945.63;;;10.09;100.00
77062;BME280;65989;51.686;5.138;2024-03-22T04:40:45;101940.09;;;10.11;100.00
77062;BME280;65989;51.686;5.138;2024-03-22T04:43:10;101933.97;;;10.10;100.00
77062;BME280;65989;51.686;5.138;2024-03-22T04:45:36;101933.19;;;10.10;100.00
77062;BME280;65989;51.686;5.138;2024-03-22T04:48:03;101926.25;;;10.09;100.00
77062;BME280;65989;51.686;5.138;2024-03-22T04:50:28;101936.25;;;10.07;100.00
77062;BME280;65989;51.686;5.138;2024-03-22T04:52:54;101926.94;;;10.04;100.00
77062;BME280;65989;51.686;5.138;2024-03-22T04:55:23;101931.41;;;10.04;100.00
77062;BME280;65989;51.686;5.138;2024-03-22T04:57:49;101933.25;;;10.03;100.00
77062;BME280;65989;51.686;5.138;2024-03-22T05:00:15;101925.53;;;10.01;100.00
77062;BME280;65989;51.686;5.138;2024-03-22T05:02:40;101915.16;;;10.00;100.00
77062;BME280;65989;51.686;5.138;2024-03-22T05:05:06;101906.19;;;10.01;100.00
77062;BME280;65989;51.686;5.138;2024-03-22T05:07:32;101913.31;;;10.00;100.00
77062;BME280;65989;51.686;5.138;2024-03-22T05:09:58;101921.25;;;10.00;100.00
77062;BME280;65989;51.686;5.138;2024-03-22T05:12:23;101917.00;;;9.99;100.00
77062;BME280;65989;51.686;5.138;2024-03-22T05:14:49;101916.41;;;9.97;100.00
77062;BME280;65989;51.686;5.138;2024-03-22T05:17:14;101923.75;;;9.95;100.00
77062;BME280;65989;51.686;5.138;2024-03-22T05:19:39;101919.28;;;9.96;100.00
77062;BME280;65989;51.686;5.138;2024-03-22T05:22:05;101927.00;;;9.97;100.00
77062;BME280;65989;51.686;5.138;2024-03-22T05:24:31;101918.25;;;9.97;100.00
77062;BME280;65989;51.686;5.138;2024-03-22T05:26:57;101911.94;;;9.98;100.00
77062;BME280;65989;51.686;5.138;2024-03-22T05:29:23;101905.22;;;9.95;100.00
77062;BME280;65989;51.686;5.138;2024-03-22T05:31:49;101902.38;;;9.97;100.00
77062;BME280;65989;51.686;5.138;2024-03-22T05:34:16;101906.84;;;9.96;100.00
77062;BME280;65989;51.686;5.138;2024-03-22T05:36:42;101910.06;;;9.98;100.00
77062;BME280;65989;51.686;5.138;2024-03-22T05:39:07;101914.00;;;9.96;100.00
77062;BME280;65989;51.686;5.138;2024-03-22T05:41:33;101906.63;;;9.98;100.00
77062;BME280;65989;51.686;5.138;2024-03-22T05:43:58;101907.44;;;9.98;100.00
77062;BME280;65989;51.686;5.138;2024-03-22T05:46:24;101913.31;;;10.00;100.00
77062;BME280;65989;51.686;5.138;2024-03-22T05:48:49;101916.34;;;10.04;100.00
77062;BME280;65989;51.686;5.138;2024-03-22T05:51:17;101898.84;;;10.03;100.00
77062;BME280;65989;51.686;5.138;2024-03-22T05:53:42;101910.59;;;10.07;100.00
77062;BME280;65989;51.686;5.138;2024-03-22T05:56:08;101907.13;;;10.07;100.00
77062;BME280;65989;51.686;5.138;2024-03-22T05:58:34;101908.75;;;10.08;100.00
77062;BME280;65989;51.686;5.138;2024-03-22T06:01:01;101907.28;;;10.12;100.00
77062;BME280;65989;51.686;5.138;2024-03-22T06:03:26;101901.84;;;10.07;100.00
77062;BME280;65989;51.686;5.138;2024-03-22T06:05:52;101903.69;;;10.06;100.00
77062;BME280;65989;51.686;5.138;2024-03-22T06:08:20;101899.19;;;10.07;100.00
77062;BME280;65989;51.686;5.138;2024-03-22T06:10:46;101905.06;;;10.09;100.00
77062;BME280;65989;51.686;5.138;2024-03-22T06:13:11;101900.81;;;10.08;100.00
77062;BME280;65989;51.686;5.138;2024-03-22T06:15:37;101907.28;;;10.12;100.00
77062;BME280;65989;51.686;5.138;2024-03-22T06:18:02;101894.81;;;10.12;100.00
77062;BME280;65989;51.686;5.138;2024-03-22T06:20:27;101895.41;;;10.14;100.00
77062;BME280;65989;51.686;5.138;2024-03-22T06:22:53;101897.47;;;10.12;100.00
77062;BME280;65989;51.686;5.138;2024-03-22T06:25:18;101885.06;;;10.13;100.00
77062;BME280;65989;51.686;5.138;2024-03-22T06:27:43;101884.03;;;10.14;100.00
77062;BME280;65989;51.686;5.138;2024-03-22T06:30:09;101886.88;;;10.12;100.00
77062;BME280;65989;51.686;5.138;2024-03-22T06:32:35;101883.78;;;10.15;100.00
77062;BME280;65989;51.686;5.138;2024-03-22T06:35:00;101882.75;;;10.16;100.00
77062;BME280;65989;51.686;5.138;2024-03-22T06:37:26;101883.94;;;10.21;100.00
77062;BME280;65989;51.686;5.138;2024-03-22T06:39:51;101882.78;;;10.28;100.00
77062;BME280;65989;51.686;5.138;2024-03-22T06:42:16;101885.81;;;10.32;100.00
77062;BME280;65989;51.686;5.138;2024-03-22T06:44:42;101876.16;;;10.38;100.00
77062;BME280;65989;51.686;5.138;2024-03-22T06:47:09;101880.13;;;10.47;100.00
77062;BME280;65989;51.686;5.138;2024-03-22T06:49:35;101884.28;;;10.55;100.00
77062;BME280;65989;51.686;5.138;2024-03-22T06:52:00;101877.41;;;10.66;100.00
77062;BME280;65989;51.686;5.138;2024-03-22T06:54:25;101878.81;;;10.80;100.00
77062;BME280;65989;51.686;5.138;2024-03-22T06:56:52;101874.91;;;10.95;100.00
77062;BME280;65989;51.686;5.138;2024-03-22T06:59:17;101874.69;;;11.08;100.00
77062;BME280;65989;51.686;5.138;2024-03-22T07:01:42;101882.06;;;11.18;100.00
77062;BME280;65989;51.686;5.138;2024-03-22T07:04:08;101881.13;;;11.24;100.00
77062;BME280;65989;51.686;5.138;2024-03-22T07:06:33;101878.59;;;11.29;100.00
77062;BME280;65989;51.686;5.138;2024-03-22T07:08:59;101889.91;;;11.37;100.00
77062;BME280;65989;51.686;5.138;2024-03-22T07:11:24;101886.31;;;11.43;99.84
77062;BME280;65989;51.686;5.138;2024-03-22T07:13:50;101886.19;;;11.49;98.79
77062;BME280;65989;51.686;5.138;2024-03-22T07:16:15;101888.97;;;11.55;98.25
77062;BME280;65989;51.686;5.138;2024-03-22T07:18:40;101879.03;;;11.50;97.77
77062;BME280;65989;51.686;5.138;2024-03-22T07:21:06;101882.22;;;11.64;97.52
77062;BME280;65989;51.686;5.138;2024-03-22T07:23:31;101882.19;;;11.76;97.46
77062;BME280;65989;51.686;5.138;2024-03-22T07:25:56;101880.31;;;11.88;97.33
77062;BME280;65989;51.686;5.138;2024-03-22T07:28:22;101884.22;;;12.09;95.91
77062;BME280;65989;51.686;5.138;2024-03-22T07:30:47;101875.41;;;12.09;95.03
77062;BME280;65989;51.686;5.138;2024-03-22T07:33:13;101881.66;;;12.15;94.59
77062;BME280;65989;51.686;5.138;2024-03-22T07:35:41;101877.06;;;12.27;94.62
77062;BME280;65989;51.686;5.138;2024-03-22T07:38:07;101881.53;;;12.38;93.53
77062;BME280;65989;51.686;5.138;2024-03-22T07:40:32;101872.50;;;12.39;92.82
77062;BME280;65989;51.686;5.138;2024-03-22T07:42:58;101862.25;;;12.31;91.58
77062;BME280;65989;51.686;5.138;2024-03-22T07:45:24;101872.41;;;12.34;91.92
77062;BME280;65989;51.686;5.138;2024-03-22T07:47:50;101879.13;;;12.37;92.12
77062;BME280;65989;51.686;5.138;2024-03-22T07:50:15;101878.00;;;12.33;91.47
77062;BME280;65989;51.686;5.138;2024-03-22T07:52:41;101873.72;;;12.32;91.62
77062;BME280;65989;51.686;5.138;2024-03-22T07:55:06;101873.72;;;12.32;91.60
77062;BME280;65989;51.686;5.138;2024-03-22T07:57:32;101873.72;;;12.32;92.02
77062;BME280;65989;51.686;5.138;2024-03-22T07:59:58;101879.91;;;12.37;91.61
77062;BME280;65989;51.686;5.138;2024-03-22T08:02:23;101880.41;;;12.34;91.42
77062;BME280;65989;51.686;5.138;2024-03-22T08:04:49;101882.00;;;12.35;91.42
77062;BME280;65989;51.686;5.138;2024-03-22T08:07:14;101878.88;;;12.38;91.66
77062;BME280;65989;51.686;5.138;2024-03-22T08:09:40;101881.31;;;12.40;90.64
77062;BME280;65989;51.686;5.138;2024-03-22T08:12:05;101880.50;;;12.39;91.17
77062;BME280;65989;51.686;5.138;2024-03-22T08:14:31;101880.75;;;12.38;90.40
77062;BME280;65989;51.686;5.138;2024-03-22T08:16:57;101888.06;;;12.48;90.36
77062;BME280;65989;51.686;5.138;2024-03-22T08:19:22;101874.88;;;12.53;90.66
77062;BME280;65989;51.686;5.138;2024-03-22T08:21:48;101882.44;;;12.61;90.38
77062;BME280;65989;51.686;5.138;2024-03-22T08:24:13;101881.81;;;12.71;90.02
77062;BME280;65989;51.686;5.138;2024-03-22T08:26:38;101881.81;;;12.71;88.62
77062;BME280;65989;51.686;5.138;2024-03-22T08:29:04;101874.06;;;12.69;88.12
77062;BME280;65989;51.686;5.138;2024-03-22T08:31:30;101874.53;;;12.66;87.74
77062;BME280;65989;51.686;5.138;2024-03-22T08:33:55;101866.00;;;12.64;88.17
77062;BME280;65989;51.686;5.138;2024-03-22T08:36:22;101868.91;;;12.63;88.41
77062;BME280;65989;51.686;5.138;2024-03-22T08:38:48;101857.22;;;12.64;88.89
77062;BME280;65989;51.686;5.138;2024-03-22T08:41:14;101850.53;;;12.61;87.63
77062;BME280;65989;51.686;5.138;2024-03-22T08:43:39;101847.88;;;12.61;88.03
77062;BME280;65989;51.686;5.138;2024-03-22T08:46:04;101851.44;;;12.67;87.57
77062;BME280;65989;51.686;5.138;2024-03-22T08:48:30;101860.53;;;12.71;87.14
77062;BME280;65989;51.686;5.138;2024-03-22T08:50:55;101852.63;;;12.59;86.42
77062;BME280;65989;51.686;5.138;2024-03-22T08:53:21;101857.63;;;12.55;87.34
77062;BME280;65989;51.686;5.138;2024-03-22T08:55:47;101854.00;;;12.45;87.05
77062;BME280;65989;51.686;5.138;2024-03-22T08:58:14;101860.84;;;12.40;88.07
77062;BME280;65989;51.686;5.138;2024-03-22T09:00:41;101857.28;;;12.35;88.14
77062;BME280;65989;51.686;5.138;2024-03-22T09:03:06;101860.75;;;12.35;88.30
77062;BME280;65989;51.686;5.138;2024-03-22T09:05:32;101862.84;;;12.33;87.88
77062;BME280;65989;51.686;5.138;2024-03-22T09:07:59;101860.91;;;12.29;87.78
77062;BME280;65989;51.686;5.138;2024-03-22T09:10:24;101856.84;;;12.26;88.03
77062;BME280;65989;51.686;5.138;2024-03-22T09:12:49;101858.16;;;12.23;87.63
77062;BME280;65989;51.686;5.138;2024-03-22T09:15:15;101857.38;;;12.23;87.98
77062;BME280;65989;51.686;5.138;2024-03-22T09:17:40;101857.09;;;12.24;88.03
77062;BME280;65989;51.686;5.138;2024-03-22T09:20:06;101853.09;;;12.22;87.35
77062;BME280;65989;51.686;5.138;2024-03-22T09:22:33;101845.34;;;12.20;88.44
77062;BME280;65989;51.686;5.138;2024-03-22T09:24:59;101852.66;;;12.13;88.06
77062;BME280;65989;51.686;5.138;2024-03-22T09:27:24;101841.69;;;12.09;88.24
77062;BME280;65989;51.686;5.138;2024-03-22T09:29:49;101843.31;;;12.10;88.66
77062;BME280;65989;51.686;5.138;2024-03-22T09:32:15;101844.34;;;12.09;88.86
77062;BME280;65989;51.686;5.138;2024-03-22T09:34:40;101842.28;;;12.12;89.21
77062;BME280;65989;51.686;5.138;2024-03-22T09:37:05;101841.22;;;12.13;88.51
77062;BME280;65989;51.686;5.138;2024-03-22T09:39:31;101840.66;;;12.10;88.35
77062;BME280;65989;51.686;5.138;2024-03-22T09:41:58;101836.88;;;12.06;88.76
77062;BME280;65989;51.686;5.138;2024-03-22T09:44:27;101826.81;;;12.08;89.09
77062;BME280;65989;51.686;5.138;2024-03-22T09:46:52;101832.91;;;12.09;88.40
77062;BME280;65989;51.686;5.138;2024-03-22T09:49:19;101824.41;;;12.07;88.49
77062;BME280;65989;51.686;5.138;2024-03-22T09:51:45;101822.78;;;12.06;87.68
77062;BME280;65989;51.686;5.138;2024-03-22T09:54:10;101819.97;;;12.13;88.30
77062;BME280;65989;51.686;5.138;2024-03-22T09:56:38;101822.31;;;12.26;87.64
77062;BME280;65989;51.686;5.138;2024-03-22T09:59:05;101825.88;;;12.32;87.49
77062;BME280;65989;51.686;5.138;2024-03-22T10:01:31;101826.09;;;12.30;87.18
77062;BME280;65989;51.686;5.138;2024-03-22T10:03:56;101813.06;;;12.29;87.12
77062;BME280;65989;51.686;5.138;2024-03-22T10:06:22;101815.41;;;12.25;87.50
77062;BME280;65989;51.686;5.138;2024-03-22T10:08:48;101814.84;;;12.23;87.87
77062;BME280;65989;51.686;5.138;2024-03-22T10:11:13;101817.72;;;12.21;87.98
77062;BME280;65989;51.686;5.138;2024-03-22T10:13:39;101822.81;;;12.23;88.13
77062;BME280;65989;51.686;5.138;2024-03-22T10:16:04;101832.31;;;12.19;88.13
77062;BME280;65989;51.686;5.138;2024-03-22T10:18:32;101834.31;;;12.12;89.16
77062;BME280;65989;51.686;5.138;2024-03-22T10:21:01;101828.78;;;12.01;90.54
77062;BME280;65989;51.686;5.138;2024-03-22T10:23:27;101842.31;;;12.00;91.62
77062;BME280;65989;51.686;5.138;2024-03-22T10:25:53;101839.53;;;11.94;92.75
77062;BME280;65989;51.686;5.138;2024-03-22T10:28:19;101841.31;;;11.89;93.85
77062;BME280;65989;51.686;5.138;2024-03-22T10:30:44;101835.06;;;11.83;95.37
77062;BME280;65989;51.686;5.138;2024-03-22T10:33:13;101837.31;;;11.74;97.55
77062;BME280;65989;51.686;5.138;2024-03-22T10:35:39;101836.16;;;11.70;98.83
77062;BME280;65989;51.686;5.138;2024-03-22T10:38:05;101829.81;;;11.71;100.00
77062;BME280;65989;51.686;5.138;2024-03-22T10:40:34;101835.00;;;11.66;100.00
77062;BME280;65989;51.686;5.138;2024-03-22T10:43:00;101830.28;;;11.68;100.00
77062;BME280;65989;51.686;5.138;2024-03-22T10:45:29;101828.22;;;11.58;100.00
77062;BME280;65989;51.686;5.138;2024-03-22T10:47:55;101837.50;;;11.56;100.00
77062;BME280;65989;51.686;5.138;2024-03-22T10:50:22;101835.06;;;11.54;100.00
77062;BME280;65989;51.686;5.138;2024-03-22T10:52:54;101834.94;;;11.49;100.00
77062;BME280;65989;51.686;5.138;2024-03-22T10:55:26;101825.47;;;11.53;100.00
77062;BME280;65989;51.686;5.138;2024-03-22T10:57:56;101822.25;;;11.51;100.00
77062;BME280;65989;51.686;5.138;2024-03-22T11:00:32;101826.31;;;11.54;100.00
77062;BME280;65989;51.686;5.138;2024-03-22T11:02:57;101822.97;;;11.46;100.00
77062;BME280;65989;51.686;5.138;2024-03-22T11:05:23;101824.00;;;11.45;100.00
77062;BME280;65989;51.686;5.138;2024-03-22T11:08:03;101823.53;;;11.48;100.00
77062;BME280;65989;51.686;5.138;2024-03-22T11:10:35;101816.84;;;11.46;100.00
77062;BME280;65989;51.686;5.138;2024-03-22T11:13:01;101821.34;;;11.45;100.00
77062;BME280;65989;51.686;5.138;2024-03-22T11:15:32;101814.78;;;11.36;100.00
77062;BME280;65989;51.686;5.138;2024-03-22T11:17:58;101812.16;;;11.24;100.00
77062;BME280;65989;51.686;5.138;2024-03-22T11:20:27;101815.97;;;11.16;100.00
77062;BME280;65989;51.686;5.138;2024-03-22T11:22:53;101813.34;;;11.04;100.00
77062;BME280;65989;51.686;5.138;2024-03-22T11:25:19;101809.88;;;11.04;100.00
77062;BME280;65989;51.686;5.138;2024-03-22T11:27:45;101820.25;;;11.05;100.00
77062;BME280;65989;51.686;5.138;2024-03-22T11:30:11;101804.34;;;11.05;100.00
77062;BME280;65989;51.686;5.138;2024-03-22T11:32:36;101806.28;;;11.10;100.00
77062;BME280;65989;51.686;5.138;2024-03-22T11:35:13;101811.13;;;11.13;100.00
77062;BME280;65989;51.686;5.138;2024-03-22T11:37:39;101798.91;;;11.12;100.00
77062;BME280;65989;51.686;5.138;2024-03-22T11:40:05;101803.66;;;11.10;100.00
77062;BME280;65989;51.686;5.138;2024-03-22T11:42:34;101800.16;;;11.10;100.00
77062;BME280;65989;51.686;5.138;2024-03-22T11:45:01;101801.00;;;11.10;100.00
77062;BME280;65989;51.686;5.138;2024-03-22T11:47:27;101796.00;;;11.14;100.00
77062;BME280;65989;51.686;5.138;2024-03-22T11:49:54;101794.19;;;11.14;100.00
77062;BME280;65989;51.686;5.138;2024-03-22T11:52:27;101790.13;;;11.24;100.00
77062;BME280;65989;51.686;5.138;2024-03-22T11:54:53;101788.13;;;11.31;100.00
77062;BME280;65989;51.686;5.138;2024-03-22T11:57:20;101778.09;;;11.33;100.00
77062;BME280;65989;51.686;5.138;2024-03-22T11:59:45;101770.97;;;11.33;100.00
77062;BME280;65989;51.686;5.138;2024-03-22T12:02:11;101777.50;;;11.43;100.00
77062;BME280;65989;51.686;5.138;2024-03-22T12:04:40;101769.78;;;11.41;100.00
77062;BME280;65989;51.686;5.138;2024-03-22T12:07:10;101764.22;;;11.43;100.00
77062;BME280;65989;51.686;5.138;2024-03-22T12:09:35;101763.75;;;11.46;100.00
77062;BME280;65989;51.686;5.138;2024-03-22T12:12:01;101759.28;;;11.46;100.00
77062;BME280;65989;51.686;5.138;2024-03-22T12:14:26;101754.28;;;11.50;100.00
77062;BME280;65989;51.686;5.138;2024-03-22T12:16:51;101752.78;;;11.54;100.00
77062;BME280;65989;51.686;5.138;2024-03-22T12:19:17;101752.16;;;11.64;100.00
77062;BME280;65989;51.686;5.138;2024-03-22T12:21:42;101747.31;;;11.61;100.00
77062;BME280;65989;51.686;5.138;2024-03-22T12:24:08;101737.03;;;11.64;100.00
77062;BME280;65989;51.686;5.138;2024-03-22T12:26:33;101736.31;;;11.69;100.00
77062;BME280;65989;51.686;5.138;2024-03-22T12:28:58;101736.66;;;11.73;100.00
77062;BME280;65989;51.686;5.138;2024-03-22T12:31:23;101727.09;;;11.72;100.00
77062;BME280;65989;51.686;5.138;2024-03-22T12:33:49;101718.72;;;11.80;100.00
77062;BME280;65989;51.686;5.138;2024-03-22T12:36:14;101714.22;;;11.80;100.00